Time;durP1;ratioP1;P1;durP2;ratioP2;P2;SDS_P1;SDS_P2;PMS_P1;PMS_P2;Temp;Humidity;BMP_temperature;BMP_pressure;BME280_temperature;BME280_humidity;BME280_pressure;Samples;Min_cycle;Max_cycle;Signal;HPM_P1;HPM_P2
2022/06/27 00:00:13;;;;;;;15.83;9.83;;;;;;;20.63;58.50;100605.39;1677163;84;25696;-67
2022/06/27 00:02:42;;;;;;;11.25;10.15;;;;;;;20.61;58.68;100612.41;1697777;84;25639;-68
2022/06/27 00:05:10;;;;;;;15.00;9.73;;;;;;;20.56;58.75;100609.38;1675290;85;25697;-67
2022/06/27 00:07:37;;;;;;;11.38;9.68;;;;;;;20.55;59.02;100613.87;1664782;85;27897;-69
2022/06/27 00:10:06;;;;;;;11.20;8.95;;;;;;;20.51;58.96;100613.23;1676331;84;25566;-67
2022/06/27 00:12:33;;;;;;;16.32;10.03;;;;;;;20.49;59.06;100612.03;1690520;84;25422;-69
2022/06/27 00:15:01;;;;;;;12.60;9.55;;;;;;;20.46;59.10;100614.91;1698957;84;25694;-69
2022/06/27 00:17:30;;;;;;;11.50;9.43;;;;;;;20.43;59.29;100611.55;1698875;83;25770;-68
2022/06/27 00:19:58;;;;;;;11.38;10.03;;;;;;;20.42;59.21;100605.05;1697270;83;27742;-66
2022/06/27 00:22:27;;;;;;;10.78;9.25;;;;;;;20.39;59.31;100603.04;1698904;84;25763;-68
2022/06/27 00:24:53;;;;;;;11.70;9.73;;;;;;;20.37;59.46;100601.24;1693960;84;25754;-67
2022/06/27 00:27:19;;;;;;;11.93;9.30;;;;;;;20.36;59.46;100602.39;1679453;84;26263;-67
2022/06/27 00:29:46;;;;;;;12.00;9.50;;;;;;;20.33;59.52;100602.56;1695235;83;25678;-67
2022/06/27 00:32:12;;;;;;;13.22;9.43;;;;;;;20.30;59.60;100599.95;1697748;84;27324;-68
2022/06/27 00:34:39;;;;;;;11.38;9.25;;;;;;;20.28;59.71;100600.91;1692825;84;25398;-70
2022/06/27 00:37:05;;;;;;;11.48;9.20;;;;;;;20.25;59.99;100607.13;1699075;84;25768;-69
2022/06/27 00:39:31;;;;;;;16.73;9.43;;;;;;;20.23;60.03;100608.09;1698370;84;25637;-69
2022/06/27 00:41:57;;;;;;;10.45;9.28;;;;;;;20.19;59.96;100605.84;1712270;82;25512;-69
2022/06/27 00:44:38;;;;;;;11.55;9.73;;;;;;;20.15;60.16;100608.53;1713529;83;27479;-69
2022/06/27 00:47:10;;;;;;;11.48;9.68;;;;;;;20.12;60.17;100616.13;1710844;83;25595;-69
2022/06/27 00:49:38;;;;;;;11.60;9.35;;;;;;;20.08;60.40;100611.16;1684982;84;25420;-70
2022/06/27 00:52:09;;;;;;;13.60;9.75;;;;;;;20.04;60.52;100610.32;1720300;83;25700;-69
2022/06/27 00:54:38;;;;;;;12.73;8.90;;;;;;;20.01;60.58;100611.05;1718189;83;25290;-69
2022/06/27 00:57:07;;;;;;;13.03;9.78;;;;;;;19.99;60.70;100607.06;1692875;84;27413;-70
2022/06/27 00:59:35;;;;;;;11.60;9.28;;;;;;;19.93;61.10;100609.33;1699819;84;25773;-69
2022/06/27 01:02:02;;;;;;;13.62;9.75;;;;;;;19.90;61.00;100610.05;1699491;84;25659;-69
2022/06/27 01:04:30;;;;;;;11.50;9.40;;;;;;;19.85;61.03;100607.02;1695319;84;25696;-69
2022/06/27 01:06:57;;;;;;;12.43;9.08;;;;;;;19.82;61.22;100606.95;1700943;84;25434;-70
2022/06/27 01:09:25;;;;;;;13.40;9.28;;;;;;;19.80;61.45;100614.77;1691841;84;27398;-69
2022/06/27 01:11:55;;;;;;;16.67;10.75;;;;;;;19.76;61.38;100607.84;1697338;83;25714;-69
2022/06/27 01:14:20;;;;;;;10.78;9.65;;;;;;;19.74;61.81;100608.77;1689446;84;25659;-70
2022/06/27 01:16:46;;;;;;;17.52;11.78;;;;;;;19.71;61.90;100597.92;1688102;84;25683;-69
2022/06/27 01:19:16;;;;;;;12.15;9.50;;;;;;;19.68;61.74;100606.90;1689137;84;25586;-69
2022/06/27 01:21:50;;;;;;;11.95;9.45;;;;;;;19.67;62.00;100599.81;1689478;84;27410;-69
2022/06/27 01:24:18;;;;;;;10.93;9.70;;;;;;;19.65;61.99;100600.76;1690134;84;25589;-69
2022/06/27 01:26:46;;;;;;;13.37;10.03;;;;;;;19.61;62.13;100599.87;1694843;83;25400;-69
2022/06/27 01:29:13;;;;;;;14.68;10.18;;;;;;;19.59;62.46;100600.24;1706184;83;25768;-69
2022/06/27 01:31:40;;;;;;;13.83;9.00;;;;;;;19.57;62.50;100594.33;1693406;83;25610;-69
2022/06/27 01:34:09;;;;;;;10.28;9.28;;;;;;;19.57;62.57;100597.08;1696067;83;27317;-69
2022/06/27 01:36:42;;;;;;;11.83;8.97;;;;;;;19.56;62.56;100599.62;1696270;84;25736;-70
2022/06/27 01:39:20;;;;;;;10.80;8.93;;;;;;;19.56;62.76;100598.80;1687037;83;25546;-70
2022/06/27 01:41:54;;;;;;;10.80;9.05;;;;;;;19.54;62.78;100601.91;1696160;84;25691;-70
2022/06/27 01:44:25;;;;;;;11.68;8.95;;;;;;;19.54;62.94;100598.38;1693033;83;25352;-69
2022/06/27 01:47:08;;;;;;;17.50;10.18;;;;;;;19.54;62.88;100595.64;1695111;84;27417;-69
2022/06/27 01:49:36;;;;;;;11.38;10.15;;;;;;;19.52;62.90;100594.62;1690755;83;25743;-70
2022/06/27 01:52:07;;;;;;;13.35;9.98;;;;;;;19.50;62.97;100590.09;1691477;83;25417;-70
2022/06/27 01:54:35;;;;;;;11.35;9.60;;;;;;;19.49;63.09;100591.81;1695561;84;26163;-70
2022/06/27 01:57:04;;;;;;;12.82;8.90;;;;;;;19.46;63.00;100593.34;1700216;83;25740;-70
2022/06/27 01:59:31;;;;;;;9.60;8.33;;;;;;;19.44;62.98;100594.27;1687683;84;27390;-70
2022/06/27 02:01:59;;;;;;;11.45;9.43;;;;;;;19.43;63.30;100588.58;1703620;83;25755;-70
2022/06/27 02:04:29;;;;;;;10.23;9.33;;;;;;;19.39;63.30;100588.52;1712857;83;25601;-70
2022/06/27 02:06:57;;;;;;;11.63;9.65;;;;;;;19.39;63.35;100590.44;1691737;83;25715;-69
2022/06/27 02:09:25;;;;;;;9.73;8.53;;;;;;;19.37;63.40;100588.64;1692473;84;25675;-69
2022/06/27 02:11:55;;;;;;;12.05;9.38;;;;;;;19.35;63.40;100590.38;1686531;83;27339;-70
2022/06/27 02:14:22;;;;;;;9.88;8.90;;;;;;;19.33;63.38;100592.69;1680765;84;25591;-70
2022/06/27 02:16:48;;;;;;;11.30;9.55;;;;;;;19.31;63.35;100588.15;1676994;84;25676;-69
2022/06/27 02:19:20;;;;;;;9.83;7.80;;;;;;;19.30;63.58;100590.66;1681158;84;26298;-69
2022/06/27 02:21:47;;;;;;;10.40;9.40;;;;;;;19.29;63.53;100592.39;1686964;84;25742;-69
2022/06/27 02:24:14;;;;;;;12.60;9.10;;;;;;;19.27;63.69;100596.08;1662055;85;27893;-70
2022/06/27 02:26:42;;;;;;;10.48;9.20;;;;;;;19.27;63.72;100598.82;1680434;83;25487;-69
2022/06/27 02:29:09;;;;;;;10.20;9.20;;;;;;;19.26;63.92;100595.30;1693760;83;25745;-69
2022/06/27 02:31:45;;;;;;;14.33;9.18;;;;;;;19.26;64.09;100594.48;1669059;85;26379;-71
2022/06/27 02:34:12;;;;;;;11.12;8.58;;;;;;;19.24;63.99;100594.87;1658628;86;25576;-70
2022/06/27 02:36:41;;;;;;;12.58;8.50;;;;;;;19.23;64.11;100598.75;1678521;85;27976;-69
2022/06/27 02:39:10;;;;;;;10.30;9.18;;;;;;;19.22;64.17;100602.64;1677620;84;25619;-70
2022/06/27 02:41:40;;;;;;;9.98;9.08;;;;;;;19.21;64.36;100607.34;1676971;85;25569;-69
2022/06/27 02:44:10;;;;;;;11.45;8.73;;;;;;;19.22;64.45;100604.01;1675711;85;25741;-69
2022/06/27 02:46:38;;;;;;;9.68;8.48;;;;;;;19.20;64.37;100602.20;1677567;85;25681;-69
2022/06/27 02:49:04;;;;;;;11.57;8.43;;;;;;;19.20;64.69;100605.73;1682467;84;27323;-69
2022/06/27 02:51:45;;;;;;;10.53;8.38;;;;;;;19.22;64.74;100604.01;1682830;84;25557;-70
2022/06/27 02:54:24;;;;;;;10.50;9.15;;;;;;;19.22;64.70;100607.56;1677487;84;25631;-69
2022/06/27 02:56:56;;;;;;;11.75;8.15;;;;;;;19.24;64.91;100605.84;1683998;84;26306;-69
2022/06/27 02:59:36;;;;;;;11.50;9.33;;;;;;;19.26;64.89;100605.45;1679529;84;25603;-69
2022/06/27 03:02:08;;;;;;;12.95;8.58;;;;;;;19.29;64.95;100612.96;1682487;84;25903;-69
2022/06/27 03:04:34;;;;;;;9.45;8.43;;;;;;;19.31;65.01;100614.20;1683811;84;25807;-69
2022/06/27 03:07:02;;;;;;;10.23;8.43;;;;;;;19.34;64.97;100612.67;1683542;84;25685;-69
2022/06/27 03:09:28;;;;;;;12.98;8.48;;;;;;;19.36;64.90;100613.91;1688641;84;25753;-69
2022/06/27 03:11:54;;;;;;;10.13;8.55;;;;;;;19.38;65.00;100617.67;1686558;84;25667;-69
2022/06/27 03:14:20;;;;;;;9.23;8.33;;;;;;;19.40;64.99;100624.95;1698393;84;28026;-69
2022/06/27 03:16:46;;;;;;;9.33;8.53;;;;;;;19.40;65.00;100618.88;1676571;83;25657;-71
2022/06/27 03:19:13;;;;;;;9.28;8.35;;;;;;;19.45;65.18;100622.51;1690207;83;25570;-70
2022/06/27 03:21:40;;;;;;;9.93;8.93;;;;;;;19.45;65.12;100619.18;1685322;84;25606;-70
2022/06/27 03:24:07;;;;;;;9.78;8.80;;;;;;;19.47;65.12;100621.56;1705570;83;25700;-71
2022/06/27 03:26:33;;;;;;;9.63;8.70;;;;;;;19.49;65.24;100620.62;1683677;83;27372;-71
2022/06/27 03:29:00;;;;;;;10.05;8.78;;;;;;;19.52;65.25;100628.13;1697355;84;25657;-71
2022/06/27 03:31:26;;;;;;;10.23;9.00;;;;;;;19.55;65.40;100626.05;1686933;84;25567;-71
2022/06/27 03:33:54;;;;;;;9.55;8.65;;;;;;;19.56;65.41;100621.56;1698596;83;25639;-71
2022/06/27 03:36:21;;;;;;;10.23;8.35;;;;;;;19.61;65.38;100625.95;1688065;84;25697;-71
2022/06/27 03:38:47;;;;;;;12.75;8.90;;;;;;;19.66;65.32;100628.98;1698511;84;27429;-71
2022/06/27 03:41:13;;;;;;;9.40;8.48;;;;;;;19.69;65.35;100631.80;1680617;83;25581;-71
2022/06/27 03:43:39;;;;;;;12.03;9.65;;;;;;;19.72;65.34;100631.66;1710238;83;25620;-71
2022/06/27 03:46:05;;;;;;;10.13;8.98;;;;;;;19.76;65.40;100639.41;1685698;84;26281;-71
2022/06/27 03:51:16;;;;;;;11.78;8.90;;;;;;;19.85;65.49;100636.42;1684422;83;28150;-70
2022/06/27 03:53:42;;;;;;;10.50;9.50;;;;;;;19.89;65.49;100631.23;1703245;83;25447;-71
2022/06/27 03:56:08;;;;;;;9.68;8.75;;;;;;;19.94;65.42;100639.16;1706807;83;26527;-71
2022/06/27 03:58:34;;;;;;;10.90;7.87;;;;;;;19.97;65.38;100636.25;1694094;83;25641;-71
2022/06/27 04:01:01;;;;;;;9.48;8.43;;;;;;;20.04;65.34;100639.70;1699827;83;25719;-71
2022/06/27 04:03:27;;;;;;;9.98;8.25;;;;;;;20.09;65.40;100632.54;1671761;84;28014;-71
2022/06/27 04:05:53;;;;;;;13.60;9.25;;;;;;;20.14;65.34;100634.98;1698358;84;25635;-71
2022/06/27 04:08:20;;;;;;;9.83;7.78;;;;;;;20.22;65.43;100635.91;1699233;83;25435;-71
2022/06/27 04:10:47;;;;;;;8.20;7.40;;;;;;;20.30;65.17;100639.00;1693821;83;25635;-71
2022/06/27 04:13:13;;;;;;;9.58;7.47;;;;;;;20.38;65.18;100635.78;1743067;81;25602;-70
2022/06/27 04:15:39;;;;;;;9.13;8.25;;;;;;;20.45;65.00;100639.45;1740533;81;28345;-70
2022/06/27 04:18:06;;;;;;;8.80;7.75;;;;;;;20.52;64.98;100638.18;1758489;81;25775;-71
2022/06/27 04:20:32;;;;;;;11.10;7.60;;;;;;;20.61;64.89;100642.05;1752412;81;25577;-70
2022/06/27 04:22:58;;;;;;;13.25;7.55;;;;;;;20.71;64.83;100641.44;1749276;81;25837;-69
2022/06/27 04:25:24;;;;;;;10.90;7.75;;;;;;;20.81;64.75;100645.52;1749162;81;25485;-69
2022/06/27 04:27:50;;;;;;;8.85;7.37;;;;;;;20.90;64.48;100635.63;1742909;81;27461;-69
2022/06/27 04:30:17;;;;;;;8.88;7.05;;;;;;;21.01;64.43;100643.46;1745048;81;25787;-66
2022/06/27 04:32:45;;;;;;;7.78;7.03;;;;;;;21.14;64.45;100633.01;1758495;81;25624;-66
2022/06/27 04:35:13;;;;;;;11.22;7.42;;;;;;;21.29;64.22;100635.96;1755945;81;25621;-67
2022/06/27 04:37:42;;;;;;;8.58;6.70;;;;;;;21.42;63.95;100641.44;1740110;81;25640;-66
2022/06/27 04:40:10;;;;;;;9.95;7.10;;;;;;;21.52;63.70;100644.93;1717327;83;27357;-67
2022/06/27 04:42:36;;;;;;;;;;;;;;;21.63;63.08;100636.79;1704339;83;25756;-66
2022/06/27 04:45:06;;;;;;;13.25;7.17;;;;;;;21.73;63.00;100640.84;1702071;83;25647;-66
2022/06/27 04:47:32;;;;;;;16.07;6.45;;;;;;;21.82;62.63;100641.31;1708178;83;26318;-66
2022/06/27 04:50:00;;;;;;;7.75;7.05;;;;;;;21.92;62.55;100643.39;1704134;83;25746;-66
2022/06/27 04:52:26;;;;;;;7.78;6.05;;;;;;;22.02;62.37;100639.16;1707913;83;27416;-66
2022/06/27 04:54:54;;;;;;;9.13;6.25;;;;;;;22.11;62.20;100643.77;1698254;83;25780;-67
2022/06/27 04:57:21;;;;;;;8.10;6.55;;;;;;;22.21;62.02;100638.16;1698190;83;25526;-66
2022/06/27 04:59:48;;;;;;;8.23;6.00;;;;;;;22.32;61.92;100639.64;1704962;83;25758;-66
2022/06/27 05:02:15;;;;;;;8.25;6.87;;;;;;;22.42;61.74;100647.20;1703386;83;25773;-66
2022/06/27 05:04:41;;;;;;;8.38;6.47;;;;;;;22.53;61.28;100650.85;1716529;83;28061;-66
2022/06/27 05:07:07;;;;;;;8.23;6.67;;;;;;;22.65;61.08;100651.14;1721626;83;25652;-66
2022/06/27 05:09:33;;;;;;;7.45;6.35;;;;;;;22.76;60.83;100653.96;1716486;83;25784;-66
2022/06/27 05:11:59;;;;;;;7.28;6.30;;;;;;;22.88;60.66;100655.61;1712974;83;25708;-66
2022/06/27 05:14:25;;;;;;;6.47;5.87;;;;;;;22.99;60.21;100652.95;1715071;83;25596;-66
2022/06/27 05:16:52;;;;;;;6.33;5.80;;;;;;;23.09;59.84;100657.76;1717672;83;28222;-66
2022/06/27 05:19:18;;;;;;;9.80;6.45;;;;;;;23.19;59.80;100648.75;1718965;82;25730;-67
2022/06/27 05:21:44;;;;;;;7.47;6.30;;;;;;;23.31;59.56;100654.52;1718568;83;25478;-67
2022/06/27 05:24:11;;;;;;;7.67;5.65;;;;;;;23.44;59.01;100651.59;1711405;82;25633;-67
2022/06/27 05:26:38;;;;;;;6.40;5.67;;;;;;;23.56;58.88;100657.95;1691117;84;25632;-67
2022/06/27 05:29:05;;;;;;;7.92;5.78;;;;;;;23.66;58.39;100651.68;1687598;84;27384;-67
2022/06/27 05:31:32;;;;;;;8.10;5.37;;;;;;;23.77;57.90;100658.03;1685759;84;25712;-67
2022/06/27 05:33:59;;;;;;;8.15;6.20;;;;;;;23.86;57.54;100658.47;1714848;83;25632;-68
2022/06/27 05:36:25;;;;;;;7.60;6.20;;;;;;;23.99;57.31;100660.28;1702111;83;25782;-67
2022/06/27 05:38:51;;;;;;;6.75;5.65;;;;;;;24.13;57.21;100657.34;1707416;83;25601;-65
2022/06/27 05:41:18;;;;;;;9.88;5.55;;;;;;;24.31;56.69;100662.27;1706455;83;27116;-66
2022/06/27 05:43:45;;;;;;;6.50;5.28;;;;;;;24.41;56.38;100657.34;1704940;83;25664;-67
2022/06/27 05:46:11;;;;;;;9.60;5.58;;;;;;;24.58;56.07;100661.91;1719292;83;25660;-65
2022/06/27 05:48:38;;;;;;;7.60;5.10;;;;;;;24.73;56.13;100666.84;1721555;83;25638;-68
2022/06/27 05:51:04;;;;;;;9.55;5.53;;;;;;;24.85;55.69;100666.43;1711250;83;25672;-68
2022/06/27 05:53:32;;;;;;;4.87;4.40;;;;;;;25.01;55.44;100665.98;1687570;84;27554;-68
2022/06/27 05:56:00;;;;;;;7.80;5.12;;;;;;;25.16;54.89;100670.33;1711717;83;27229;-68
2022/06/27 05:58:26;;;;;;;11.78;5.78;;;;;;;25.30;54.53;100677.02;1714761;83;25727;-66
2022/06/27 06:00:52;;;;;;;13.28;5.15;;;;;;;25.43;54.29;100677.37;1718754;83;25854;-66
2022/06/27 06:03:18;;;;;;;6.45;4.58;;;;;;;25.55;53.57;100678.30;1690465;84;25662;-66
2022/06/27 06:05:44;;;;;;;5.37;4.85;;;;;;;25.68;53.81;100671.73;1691377;83;28127;-66
2022/06/27 06:08:11;;;;;;;7.72;4.78;;;;;;;25.80;53.17;100679.57;1719377;83;25417;-66
2022/06/27 06:10:38;;;;;;;9.18;4.67;;;;;;;25.90;52.37;100674.56;1706855;83;25574;-66
2022/06/27 06:13:05;;;;;;;9.50;5.47;;;;;;;26.04;52.06;100677.87;1721031;83;25800;-66
2022/06/27 06:15:32;;;;;;;6.30;4.83;;;;;;;26.16;51.91;100682.14;1698826;83;25671;-67
2022/06/27 06:18:02;;;;;;;6.47;4.40;;;;;;;26.28;51.50;100678.88;1692398;84;27166;-66
2022/06/27 06:20:28;;;;;;;6.60;4.47;;;;;;;26.43;51.61;100678.78;1723651;82;25738;-66
2022/06/27 06:22:56;;;;;;;6.90;4.03;;;;;;;26.59;50.39;100681.80;1720505;82;25484;-66
2022/06/27 06:25:23;;;;;;;5.55;4.03;;;;;;;26.71;50.61;100693.63;1724844;82;25660;-67
2022/06/27 06:27:50;;;;;;;9.85;4.10;;;;;;;26.86;50.20;100686.74;1695187;84;25435;-70
2022/06/27 06:30:19;;;;;;;7.42;4.50;;;;;;;27.06;50.11;100687.55;1694749;84;27390;-69
2022/06/27 06:32:46;;;;;;;5.97;3.95;;;;;;;27.24;49.82;100683.17;1713644;82;25826;-70
2022/06/27 06:35:12;;;;;;;13.43;4.65;;;;;;;27.43;49.36;100688.15;1723571;82;25642;-70
2022/06/27 06:37:39;;;;;;;12.63;4.75;;;;;;;27.58;48.87;100700.66;1715443;82;25880;-70
2022/06/27 06:40:08;;;;;;;8.73;4.72;;;;;;;27.67;48.41;100693.20;1673920;83;25583;-70
2022/06/27 06:42:35;;;;;;;10.90;4.05;;;;;;;27.80;47.79;100702.35;1701712;82;27525;-70
2022/06/27 06:45:04;;;;;;;8.70;3.90;;;;;;;27.89;47.39;100704.81;1681759;84;25793;-71
2022/06/27 06:47:31;;;;;;;10.00;4.75;;;;;;;27.97;47.16;100702.73;1721979;82;25671;-70
2022/06/27 06:49:57;;;;;;;6.17;3.62;;;;;;;28.08;46.58;100704.77;1699279;83;26307;-71
2022/06/27 06:52:24;;;;;;;9.38;4.15;;;;;;;28.19;46.52;100697.64;1706965;83;25722;-70
2022/06/27 06:54:51;;;;;;;5.22;4.30;;;;;;;28.36;46.17;100693.62;1738917;82;27494;-70
2022/06/27 06:57:18;;;;;;;10.60;4.40;;;;;;;28.50;45.65;100696.16;1698867;82;25663;-70
2022/06/27 06:59:44;;;;;;;4.80;3.80;;;;;;;28.61;45.53;100699.59;1733358;82;25708;-71
2022/06/27 07:02:10;;;;;;;8.08;4.00;;;;;;;28.72;45.05;100691.04;1709055;82;25555;-71
2022/06/27 07:04:38;;;;;;;7.28;3.50;;;;;;;28.84;44.70;100688.25;1727722;82;25691;-70
2022/06/27 07:07:05;;;;;;;8.45;4.42;;;;;;;28.93;44.03;100686.30;1711247;83;27308;-70
2022/06/27 07:09:31;;;;;;;6.20;4.37;;;;;;;28.97;43.69;100686.41;1713422;82;25759;-70
2022/06/27 07:11:57;;;;;;;6.65;3.87;;;;;;;29.03;43.42;100687.50;1733519;82;25626;-70
2022/06/27 07:14:26;;;;;;;3.98;3.58;;;;;;;29.09;43.32;100690.57;1698999;83;25767;-73
2022/06/27 07:16:51;;;;;;;5.72;3.75;;;;;;;29.19;43.49;100691.61;1728989;81;25769;-71
2022/06/27 07:19:18;;;;;;;7.22;3.87;;;;;;;29.33;43.27;100691.93;1705113;83;26997;-72
2022/06/27 07:21:44;;;;;;;3.70;3.40;;;;;;;29.47;43.05;100700.60;1712294;82;25599;-71
2022/06/27 07:24:10;;;;;;;5.85;3.55;;;;;;;29.66;41.75;100695.63;1696118;83;25851;-70
2022/06/27 07:26:37;;;;;;;6.35;3.60;;;;;;;29.81;42.13;100700.29;1730157;82;25894;-73
2022/06/27 07:29:05;;;;;;;6.17;3.42;;;;;;;29.92;41.83;100686.91;1735838;82;25398;-69
2022/06/27 07:31:32;;;;;;;4.67;3.10;;;;;;;29.92;41.19;100701.47;1726195;81;27915;-69
2022/06/27 07:33:59;;;;;;;4.28;3.60;;;;;;;29.93;40.87;100703.82;1727125;82;25780;-69
2022/06/27 07:36:26;;;;;;;6.83;3.62;;;;;;;29.96;40.58;100697.36;1690463;82;25360;-70
2022/06/27 07:38:54;;;;;;;5.12;3.30;;;;;;;29.93;39.91;100702.42;1730237;82;25637;-69
2022/06/27 07:41:23;;;;;;;3.92;3.05;;;;;;;29.83;39.04;100709.03;1730469;82;25604;-70
2022/06/27 07:43:51;;;;;;;5.83;3.10;;;;;;;29.67;39.58;100697.80;1711591;82;28044;-69
2022/06/27 07:46:20;;;;;;;3.87;2.93;;;;;;;29.56;40.00;100715.53;1700961;83;25760;-70
2022/06/27 07:48:48;;;;;;;6.65;3.67;;;;;;;29.52;39.22;100701.48;1725589;82;25658;-69
2022/06/27 07:51:19;;;;;;;4.08;3.70;;;;;;;29.50;40.09;100708.10;1726774;82;26179;-71
2022/06/27 07:53:46;;;;;;;7.00;3.77;;;;;;;29.51;39.91;100706.88;1681211;83;25445;-71
2022/06/27 07:56:14;;;;;;;4.85;3.33;;;;;;;29.49;39.90;100705.94;1681451;83;27244;-71
2022/06/27 07:58:42;;;;;;;4.72;3.65;;;;;;;29.50;40.06;100701.14;1712864;83;25675;-70
2022/06/27 08:01:14;;;;;;;3.65;3.33;;;;;;;29.53;40.00;100698.27;1722124;82;25810;-71
2022/06/27 08:03:44;;;;;;;3.35;3.05;;;;;;;29.68;40.27;100695.17;1685173;84;26275;-70
2022/06/27 08:06:23;;;;;;;4.92;3.72;;;;;;;29.85;40.36;100697.42;1697174;84;25782;-71
2022/06/27 08:08:58;;;;;;;4.20;3.80;;;;;;;30.10;39.77;100703.83;1696094;84;27264;-71
2022/06/27 08:11:34;;;;;;;5.50;3.50;;;;;;;30.24;39.43;100700.72;1702781;83;25870;-72
2022/06/27 08:14:06;;;;;;;4.08;3.70;;;;;;;30.35;39.30;100692.88;1702274;82;25737;-71
2022/06/27 08:16:36;;;;;;;5.47;3.67;;;;;;;30.52;39.10;100687.30;1723895;83;26167;-71
2022/06/27 08:19:03;;;;;;;6.17;4.30;;;;;;;30.81;39.31;100693.55;1717904;83;25357;-71
2022/06/27 08:21:30;;;;;;;3.85;3.40;;;;;;;31.09;39.16;100687.22;1695663;84;27376;-71
2022/06/27 08:24:00;;;;;;;6.08;4.03;;;;;;;31.39;38.36;100682.37;1709173;83;25679;-71
2022/06/27 08:26:29;;;;;;;4.58;3.37;;;;;;;31.68;37.61;100701.74;1710063;83;25302;-72
2022/06/27 08:28:58;;;;;;;3.58;2.85;;;;;;;31.84;36.47;100679.25;1712609;83;26314;-71
2022/06/27 08:31:26;;;;;;;3.35;3.00;;;;;;;32.07;35.75;100696.98;1700666;83;26382;-71
2022/06/27 08:34:01;;;;;;;3.75;2.98;;;;;;;32.12;35.54;100686.62;1702849;83;27540;-71
2022/06/27 08:36:23;;;;;;;6.33;3.10;;;;;;;32.23;35.36;100679.27;1703739;83;26059;-71
2022/06/27 08:38:50;;;;;;;5.22;2.98;;;;;;;32.39;35.14;100674.31;1733807;81;26346;-71
2022/06/27 08:41:18;;;;;;;4.92;3.10;;;;;;;32.56;34.56;100675.58;1702337;82;26406;-70
2022/06/27 08:43:47;;;;;;;5.60;3.20;;;;;;;32.58;34.07;100664.07;1668815;84;25470;-70
2022/06/27 08:46:16;;;;;;;4.05;2.87;;;;;;;32.58;34.07;100664.07;1718949;83;28436;-70
2022/06/27 08:48:45;;;;;;;3.58;3.22;;;;;;;32.75;34.29;100659.11;1723380;82;25653;-70
2022/06/27 08:51:12;;;;;;;5.37;3.17;;;;;;;32.89;33.96;100671.05;1695254;84;35323;-70
2022/06/27 08:53:41;;;;;;;3.65;2.98;;;;;;;32.91;33.79;100660.17;1699308;84;25804;-71
2022/06/27 08:56:12;;;;;;;4.30;3.47;;;;;;;32.91;33.79;100660.17;1696228;83;25348;-71
2022/06/27 08:58:46;;;;;;;12.90;3.85;;;;;;;33.06;33.84;100667.44;1700453;83;25892;-70
2022/06/27 09:01:11;;;;;;;4.85;3.40;;;;;;;33.09;33.20;100661.70;1693488;84;25819;-70
2022/06/27 09:03:37;;;;;;;4.03;3.37;;;;;;;33.14;33.50;100664.55;1686705;83;25726;-72
2022/06/27 09:06:07;;;;;;;4.67;3.10;;;;;;;33.20;33.47;100649.34;1696229;83;26399;-72
2022/06/27 09:08:38;;;;;;;6.70;3.40;;;;;;;33.31;33.58;100656.11;1710308;83;25781;-72
2022/06/27 09:11:05;;;;;;;3.98;3.40;;;;;;;33.52;33.11;100645.31;1708012;83;27429;-70
2022/06/27 09:13:32;;;;;;;5.40;3.22;;;;;;;33.59;32.53;100646.44;1699032;83;26095;-71
2022/06/27 09:16:05;;;;;;;6.85;3.30;;;;;;;33.55;31.82;100663.26;1712328;83;25716;-72
2022/06/27 09:18:37;;;;;;;3.22;2.92;;;;;;;33.42;32.18;100645.88;1714614;83;25721;-70
2022/06/27 09:21:11;;;;;;;3.80;3.12;;;;;;;33.68;32.50;100656.97;1711148;83;25562;-71
2022/06/27 09:23:53;;;;;;;4.85;3.30;;;;;;;33.54;31.14;100646.26;1702301;83;27351;-71
2022/06/27 09:26:25;;;;;;;5.15;3.08;;;;;;;33.59;31.27;100645.66;1730352;82;25749;-71
2022/06/27 09:29:04;;;;;;;3.37;3.00;;;;;;;33.56;30.92;100647.98;1728722;82;25628;-71
2022/06/27 09:31:45;;;;;;;7.10;3.27;;;;;;;33.39;31.11;100637.61;1695981;84;26199;-72
2022/06/27 09:34:26;;;;;;;6.67;3.10;;;;;;;33.52;31.34;100640.34;1716454;83;25859;-71
2022/06/27 09:36:57;;;;;;;6.17;3.47;;;;;;;33.73;31.42;100628.31;1697691;84;28226;-71
2022/06/27 09:39:36;;;;;;;7.55;3.50;;;;;;;33.94;30.87;100646.92;1722804;83;25770;-70
2022/06/27 09:42:13;;;;;;;4.45;2.70;;;;;;;34.22;31.60;100640.16;1727803;83;25310;-70
2022/06/27 09:44:42;;;;;;;5.67;2.65;;;;;;;34.52;29.22;100644.70;1718843;83;26169;-71
2022/06/27 09:47:19;;;;;;;4.60;2.37;;;;;;;34.24;29.15;100660.13;1710297;83;25584;-74
2022/06/27 09:49:52;;;;;;;4.10;3.00;;;;;;;34.04;28.88;100651.31;1721202;82;27321;-73
2022/06/27 09:52:22;;;;;;;4.62;2.40;;;;;;;33.97;29.47;100643.17;1696662;81;26128;-73
2022/06/27 09:54:52;;;;;;;3.45;2.98;;;;;;;33.92;29.34;100636.16;1693881;84;25699;-74
2022/06/27 09:57:20;;;;;;;2.77;2.58;;;;;;;33.72;28.78;100637.19;1693287;83;25701;-75
2022/06/27 09:59:50;;;;;;;3.30;2.65;;;;;;;33.30;28.72;100630.72;1686357;84;31733;-71
2022/06/27 10:02:22;;;;;;;3.95;3.37;;;;;;;33.05;29.58;100635.85;1708596;83;27037;-71
2022/06/27 10:04:51;;;;;;;4.62;2.80;;;;;;;33.03;29.66;100638.33;1726851;82;25760;-75
2022/06/27 10:07:19;;;;;;;7.58;3.33;;;;;;;32.99;29.42;100622.26;1719211;83;26182;-74
2022/06/27 10:09:48;;;;;;;6.30;2.72;;;;;;;33.23;30.21;100623.98;1691031;84;25752;-72
2022/06/27 10:12:26;;;;;;;7.50;3.33;;;;;;;33.45;30.08;100617.56;1727759;82;25652;-72
2022/06/27 10:15:19;;;;;;;3.62;2.55;;;;;;;33.84;29.94;100612.45;1728576;82;27335;-71
2022/06/27 10:17:50;;;;;;;3.55;2.67;;;;;;;34.22;28.91;100633.75;1730667;81;25572;-72
2022/06/27 10:20:29;;;;;;;4.87;2.60;;;;;;;34.33;29.25;100608.05;1730495;82;26362;-72
2022/06/27 10:23:21;;;;;;;2.75;2.40;;;;;;;34.66;29.54;100598.36;1730825;82;26158;-67
2022/06/27 10:25:48;;;;;;;4.22;2.60;;;;;;;34.97;28.67;100606.64;1730626;82;25652;-70
2022/06/27 10:28:20;;;;;;;3.40;2.37;;;;;;;34.54;28.53;100595.09;1721183;82;29442;-71
2022/06/27 10:30:55;;;;;;;5.47;2.62;;;;;;;34.23;29.30;100593.99;1702517;83;25687;-69
2022/06/27 10:33:26;;;;;;;5.55;3.20;;;;;;;33.89;29.33;100579.58;1732730;82;25612;-70
2022/06/27 10:36:10;;;;;;;3.45;3.15;;;;;;;33.45;29.90;100578.31;1732904;82;26131;-73
2022/06/27 10:38:39;;;;;;;5.90;3.12;;;;;;;33.27;30.10;100570.00;1713464;82;25718;-70
2022/06/27 10:41:10;;;;;;;4.37;3.08;;;;;;;33.00;30.99;100580.41;1701360;84;27337;-71
2022/06/27 10:43:59;;;;;;;4.60;3.33;;;;;;;32.99;31.29;100574.64;1718809;82;25695;-70
2022/06/27 10:46:26;;;;;;;6.37;3.45;;;;;;;32.92;31.31;100580.52;1702547;82;25851;-70
2022/06/27 10:48:57;;;;;;;3.25;3.00;;;;;;;32.52;31.49;100582.52;1702036;82;25741;-71
2022/06/27 10:51:34;;;;;;;6.03;3.20;;;;;;;32.23;32.04;100584.91;1708014;82;26718;-70
2022/06/27 10:54:11;;;;;;;5.33;3.08;;;;;;;32.10;32.52;100584.96;1733016;82;27284;-70
2022/06/27 10:56:51;;;;;;;4.00;3.05;;;;;;;32.21;32.83;100584.59;1722522;82;25741;-69
2022/06/27 10:59:23;;;;;;;2.98;2.77;;;;;;;32.26;31.44;100586.03;1732055;82;25671;-69
2022/06/27 11:01:57;;;;;;;4.97;2.90;;;;;;;32.34;31.47;100595.12;1738210;82;25689;-70
2022/06/27 11:04:28;;;;;;;3.60;3.08;;;;;;;32.31;31.40;100577.84;1732184;82;25593;-70
2022/06/27 11:06:59;;;;;;;3.65;2.95;;;;;;;32.25;30.85;100583.86;1738770;82;26937;-70
2022/06/27 11:09:46;;;;;;;5.10;3.20;;;;;;;31.96;32.40;100583.99;1732378;82;25849;-72
2022/06/27 11:12:16;;;;;;;3.22;2.72;;;;;;;31.99;32.37;100583.09;1651625;86;25787;-70
2022/06/27 11:14:53;;;;;;;6.47;3.40;;;;;;;31.99;32.37;100583.09;1656646;86;25715;-69
2022/06/27 11:17:32;;;;;;;3.72;3.02;;;;;;;32.13;32.53;100569.27;1640344;86;25952;-70
2022/06/27 11:20:13;;;;;;;6.75;3.40;;;;;;;32.23;33.08;100569.52;1653555;86;27336;-71
2022/06/27 11:22:42;;;;;;;6.25;3.30;;;;;;;32.36;32.97;100570.27;1650904;86;25749;-71
2022/06/27 11:25:09;;;;;;;;;;;;;;;32.30;33.17;100545.52;1647134;86;25765;-70
2022/06/27 11:27:54;;;;;;;4.47;3.50;;;;;;;32.31;32.92;100545.66;1630704;86;25718;-70
2022/06/27 11:33:19;;;;;;;5.85;3.50;;;;;;;32.35;32.73;100538.53;1653460;86;28155;-69
2022/06/27 11:35:47;;;;;;;5.75;3.30;;;;;;;32.43;32.09;100548.24;1641864;86;25888;-70